Time;durP1;ratioP1;P1;durP2;ratioP2;P2;SDS_P1;SDS_P2;PMS_P1;PMS_P2;Temp;Humidity;BMP_temperature;BMP_pressure;BME280_temperature;BME280_humidity;BME280_pressure;Samples;Min_cycle;Max_cycle;Signal;HPM_P1;HPM_P2
2021/11/19 00:00:10;;;;;;;38.47;19.30;;;;;;;2.73;67.07;99077.72;5032208;28;20434;-62
2021/11/19 00:02:35;;;;;;;32.65;17.90;;;;;;;2.69;67.21;99078.84;5032624;28;20036;-63
2021/11/19 00:05:01;;;;;;;35.65;17.75;;;;;;;2.72;67.92;99083.94;5032001;28;20029;-62
2021/11/19 00:07:27;;;;;;;35.72;18.15;;;;;;;2.71;67.44;99082.25;5032862;28;20021;-63
2021/11/19 00:09:53;;;;;;;35.88;17.90;;;;;;;2.77;67.76;99077.50;5032272;28;20033;-62
2021/11/19 00:12:18;;;;;;;32.90;17.77;;;;;;;2.77;67.55;99072.22;5031971;28;20029;-61
2021/11/19 00:14:44;;;;;;;32.63;16.83;;;;;;;2.76;67.34;99070.53;5031563;28;20037;-62
2021/11/19 00:17:10;;;;;;;32.75;17.02;;;;;;;2.69;67.77;99055.03;5031719;28;20022;-62
2021/11/19 00:19:39;;;;;;;31.25;16.98;;;;;;;2.78;67.80;99071.28;5033044;28;20189;-62
2021/11/19 00:22:07;;;;;;;31.80;16.52;;;;;;;2.81;67.59;99074.59;5032054;28;20044;-62
2021/11/19 00:24:34;;;;;;;32.35;17.40;;;;;;;2.84;67.95;99058.53;5031818;28;20039;-61
2021/11/19 00:26:59;;;;;;;34.92;16.98;;;;;;;2.81;67.52;99058.75;5031188;28;20053;-62
2021/11/19 00:29:25;;;;;;;31.40;16.52;;;;;;;2.82;67.95;99049.00;5042534;28;20065;-62
2021/11/19 00:31:51;;;;;;;33.03;17.17;;;;;;;2.84;67.86;99047.97;5051803;28;20068;-63
2021/11/19 00:34:17;;;;;;;33.88;16.35;;;;;;;2.87;67.19;99046.91;5051348;28;20124;-62
2021/11/19 00:36:44;;;;;;;33.47;16.85;;;;;;;2.82;67.61;99049.00;5051422;28;20029;-61
2021/11/19 00:39:14;;;;;;;31.52;16.38;;;;;;;2.79;67.45;99039.47;5050090;28;20025;-61
2021/11/19 00:41:41;;;;;;;32.80;17.65;;;;;;;2.81;67.65;99036.72;5051809;28;20485;-63
2021/11/19 00:44:10;;;;;;;33.83;16.52;;;;;;;2.73;67.48;99022.19;5047034;28;20051;-61
2021/11/19 00:46:36;;;;;;;31.35;16.15;;;;;;;2.75;67.72;99026.53;5031350;28;20466;-62
2021/11/19 00:49:02;;;;;;;31.63;15.88;;;;;;;2.73;68.03;99018.69;5031078;28;20432;-62
2021/11/19 00:51:32;;;;;;;32.50;16.95;;;;;;;2.76;68.12;99021.13;5050792;28;20045;-62
2021/11/19 00:53:59;;;;;;;32.60;16.80;;;;;;;2.79;67.94;99020.97;5050797;28;20029;-62
2021/11/19 00:56:30;;;;;;;31.45;17.02;;;;;;;2.83;67.90;99011.03;5050858;28;20025;-61
2021/11/19 00:58:57;;;;;;;36.60;17.23;;;;;;;2.81;68.44;99010.28;5051107;28;20138;-62
2021/11/19 01:01:34;;;;;;;31.38;15.82;;;;;;;2.89;68.25;99023.88;5035493;28;20040;-62
2021/11/19 01:04:01;;;;;;;31.33;15.88;;;;;;;2.88;68.10;99006.31;5029369;28;20422;-62
2021/11/19 01:06:27;;;;;;;29.25;15.43;;;;;;;2.73;68.50;98977.25;5031503;28;20032;-61
2021/11/19 01:08:54;;;;;;;33.00;16.55;;;;;;;2.70;67.76;98972.16;5030563;28;20045;-62
2021/11/19 01:11:22;;;;;;;30.33;15.90;;;;;;;2.96;67.47;99009.34;5031973;28;20477;-62
2021/11/19 01:13:50;;;;;;;30.98;15.32;;;;;;;2.96;68.06;99008.47;5031015;28;20482;-62
2021/11/19 01:16:23;;;;;;;30.52;15.35;;;;;;;2.99;67.90;98998.56;5030699;28;20033;-62
2021/11/19 01:18:53;;;;;;;29.50;15.45;;;;;;;2.99;67.74;99008.28;5029832;28;20034;-62
2021/11/19 01:21:21;;;;;;;31.58;16.05;;;;;;;2.99;67.73;99003.88;5032446;28;20389;-63
2021/11/19 01:23:47;;;;;;;28.98;15.57;;;;;;;2.98;67.74;99003.94;5030938;28;20045;-63
2021/11/19 01:26:21;;;;;;;30.45;15.68;;;;;;;3.01;67.77;99003.75;5030986;28;20088;-63
2021/11/19 01:28:50;;;;;;;30.52;16.23;;;;;;;2.93;67.67;98998.97;5031063;28;20483;-62
2021/11/19 01:31:20;;;;;;;31.33;16.38;;;;;;;3.00;67.54;98994.97;5032126;28;20045;-63
2021/11/19 01:33:47;;;;;;;29.10;15.45;;;;;;;2.76;67.65;98959.50;5030520;28;20069;-62
2021/11/19 01:36:13;;;;;;;31.70;15.65;;;;;;;3.01;68.00;98995.81;5031075;28;20041;-63
2021/11/19 01:38:41;;;;;;;29.90;14.48;;;;;;;3.04;67.83;99003.59;5030998;28;20413;-62
2021/11/19 01:41:15;;;;;;;30.20;15.30;;;;;;;3.12;67.49;99011.88;5030777;28;20025;-62
2021/11/19 01:43:41;;;;;;;29.48;14.82;;;;;;;3.12;67.87;98996.00;5031883;28;20056;-62
2021/11/19 01:46:11;;;;;;;30.75;15.48;;;;;;;2.93;67.43;98961.94;5029558;28;20034;-62
2021/11/19 01:48:40;;;;;;;33.53;16.42;;;;;;;3.18;67.25;99002.72;5029830;28;20403;-62
2021/11/19 01:51:29;;;;;;;31.58;14.80;;;;;;;3.22;67.58;98988.34;5030305;28;20036;-63
2021/11/19 01:54:00;;;;;;;30.80;15.35;;;;;;;3.20;67.11;98987.59;5045258;28;20033;-62
2021/11/19 01:56:50;;;;;;;33.30;16.38;;;;;;;3.19;67.53;98985.03;5050643;28;20124;-61
2021/11/19 01:59:24;;;;;;;30.58;15.43;;;;;;;3.09;67.81;98987.41;5050951;28;20025;-61
2021/11/19 02:02:03;;;;;;;32.92;15.18;;;;;;;3.01;68.35;98986.09;5050159;28;20053;-62
2021/11/19 02:04:34;;;;;;;29.92;15.18;;;;;;;3.05;67.82;98988.56;5034154;28;20049;-62
2021/11/19 02:07:44;;;;;;;34.35;16.40;;;;;;;3.11;67.44;98981.09;5030694;28;20476;-63
2021/11/19 02:10:32;;;;;;;24.90;14.18;;;;;;;3.12;67.74;98976.63;5030444;28;20034;-62
2021/11/19 02:13:19;;;;;;;28.60;14.20;;;;;;;3.12;67.83;98979.28;5029957;28;20044;-61
2021/11/19 02:15:53;;;;;;;27.80;14.60;;;;;;;3.09;67.76;98974.19;5051105;28;20078;-61
2021/11/19 02:18:28;;;;;;;32.25;15.13;;;;;;;3.07;67.50;98978.72;5054360;28;20461;-61
2021/11/19 02:20:59;;;;;;;34.63;16.10;;;;;;;3.11;67.89;98978.44;5053597;28;20548;-60
2021/11/19 02:23:55;;;;;;;32.97;15.85;;;;;;;3.21;67.16;98978.72;5053585;28;20311;-61
2021/11/19 02:26:24;;;;;;;26.80;14.57;;;;;;;3.20;67.56;98987.59;5034095;28;20107;-61
2021/11/19 02:28:53;;;;;;;32.97;15.88;;;;;;;3.16;67.82;98975.50;5033829;28;20400;-61
2021/11/19 02:31:32;;;;;;;27.85;14.65;;;;;;;3.19;67.71;98983.25;5033929;28;20119;-62
2021/11/19 02:34:01;;;;;;;32.55;15.90;;;;;;;3.18;67.60;98973.63;5033593;28;20048;-61
2021/11/19 02:36:42;;;;;;;31.70;15.43;;;;;;;3.24;67.94;98978.50;5053240;28;20048;-60
2021/11/19 02:39:13;;;;;;;29.60;15.85;;;;;;;3.22;67.14;98971.59;5053593;28;20112;-61
2021/11/19 02:41:45;;;;;;;28.80;14.90;;;;;;;3.13;67.28;98951.88;5053504;28;20033;-61
2021/11/19 02:44:13;;;;;;;33.20;15.80;;;;;;;3.19;67.74;98964.72;5053415;28;20068;-60
2021/11/19 02:46:46;;;;;;;29.40;14.02;;;;;;;3.18;68.11;98970.97;5051133;28;20107;-61
2021/11/19 02:49:12;;;;;;;32.05;15.10;;;;;;;3.19;68.05;98980.59;5053518;28;20041;-60
2021/11/19 02:51:38;;;;;;;29.80;14.98;;;;;;;3.18;67.44;98973.63;5053346;28;20036;-60
2021/11/19 02:54:10;;;;;;;30.77;15.05;;;;;;;3.28;67.43;98973.88;5052985;28;20044;-61
2021/11/19 02:56:35;;;;;;;27.25;13.93;;;;;;;3.29;66.79;98971.13;5047682;28;20025;-61
2021/11/19 02:59:02;;;;;;;29.80;14.25;;;;;;;3.25;67.02;98959.03;5033010;28;20037;-60
2021/11/19 03:01:32;;;;;;;29.60;14.13;;;;;;;3.21;67.36;98952.25;5032163;28;20381;-59
2021/11/19 03:04:04;;;;;;;29.65;14.23;;;;;;;3.23;67.23;98953.00;5032744;28;20465;-59
2021/11/19 03:06:36;;;;;;;26.35;13.77;;;;;;;3.25;67.64;98952.88;5032812;28;20087;-60
2021/11/19 03:09:03;;;;;;;31.35;14.25;;;;;;;3.19;67.28;98938.28;5033406;28;20037;-62
2021/11/19 03:11:29;;;;;;;28.50;13.98;;;;;;;3.16;67.80;98931.38;5032777;28;20040;-61
2021/11/19 03:13:55;;;;;;;27.70;13.63;;;;;;;3.19;67.41;98927.69;5032730;28;20382;-61
2021/11/19 03:16:20;;;;;;;29.38;13.63;;;;;;;3.24;67.21;98937.97;5033433;28;20072;-61
2021/11/19 03:18:46;;;;;;;29.73;14.38;;;;;;;3.15;67.84;98936.78;5034223;28;20454;-61
2021/11/19 03:21:16;;;;;;;28.40;13.80;;;;;;;3.22;68.19;98935.44;5032491;28;20026;-62
2021/11/19 03:23:43;;;;;;;24.50;13.18;;;;;;;3.24;67.33;98944.13;5033208;28;20042;-61
2021/11/19 03:26:10;;;;;;;26.67;13.68;;;;;;;3.23;67.70;98934.47;5032910;28;20025;-61
2021/11/19 03:28:36;;;;;;;28.13;13.80;;;;;;;3.18;67.45;98933.06;5040254;28;20045;-61
2021/11/19 03:31:06;;;;;;;26.83;13.85;;;;;;;3.27;67.59;98933.34;5052389;28;20032;-61
2021/11/19 03:33:36;;;;;;;26.77;12.82;;;;;;;3.28;67.61;98915.69;5052825;28;20120;-62
2021/11/19 03:36:04;;;;;;;23.15;12.55;;;;;;;3.29;67.32;98925.31;5052752;28;20397;-63
2021/11/19 03:38:31;;;;;;;24.65;13.07;;;;;;;3.24;67.66;98904.44;5050710;28;20021;-62
2021/11/19 03:40:58;;;;;;;24.77;12.48;;;;;;;3.28;67.82;98918.31;5052427;28;20048;-62
2021/11/19 03:43:28;;;;;;;24.80;13.40;;;;;;;3.18;67.07;98896.91;5052563;28;20033;-61
2021/11/19 03:45:59;;;;;;;22.55;12.95;;;;;;;3.34;67.89;98923.22;5052179;28;20056;-61
2021/11/19 03:48:26;;;;;;;24.75;12.70;;;;;;;3.18;67.63;98888.09;5050843;28;20382;-61
2021/11/19 03:50:59;;;;;;;24.20;12.77;;;;;;;3.40;67.22;98928.09;5032124;28;20021;-62
2021/11/19 03:53:26;;;;;;;24.85;12.30;;;;;;;3.35;66.92;98934.63;5031204;28;20473;-62
2021/11/19 03:55:54;;;;;;;23.30;12.90;;;;;;;3.32;67.25;98935.69;5032536;28;20030;-61
2021/11/19 03:58:26;;;;;;;26.60;12.95;;;;;;;3.32;67.80;98932.19;5031851;28;20072;-61
2021/11/19 04:00:59;;;;;;;30.38;14.50;;;;;;;3.30;67.90;98938.41;5047720;28;20029;-62
2021/11/19 04:03:26;;;;;;;25.10;13.15;;;;;;;3.35;67.68;98937.28;5052552;28;20035;-61
2021/11/19 04:05:52;;;;;;;27.98;14.13;;;;;;;3.39;67.23;98941.44;5052144;28;20025;-61
2021/11/19 04:08:18;;;;;;;29.90;13.30;;;;;;;3.42;67.55;98936.78;5051697;28;20036;-62
2021/11/19 04:10:44;;;;;;;28.48;13.55;;;;;;;3.47;67.76;98936.47;5049056;28;20029;-62
2021/11/19 04:13:10;;;;;;;26.08;13.35;;;;;;;3.51;67.81;98939.78;5052012;28;20512;-63
2021/11/19 04:15:42;;;;;;;26.42;13.93;;;;;;;3.54;66.83;98944.88;5051860;28;20025;-61
2021/11/19 04:18:08;;;;;;;26.02;12.77;;;;;;;3.53;66.91;98948.47;5051360;28;20021;-62
2021/11/19 04:20:34;;;;;;;25.95;13.02;;;;;;;3.55;67.21;98943.91;5049981;28;20021;-63
2021/11/19 04:23:00;;;;;;;24.63;13.23;;;;;;;3.52;67.34;98937.03;5052082;28;20318;-62
2021/11/19 04:25:26;;;;;;;25.63;12.75;;;;;;;3.56;67.32;98941.16;5051707;28;20025;-62
2021/11/19 04:27:53;;;;;;;25.30;12.85;;;;;;;3.58;67.03;98941.06;5051235;28;20045;-62
2021/11/19 04:30:24;;;;;;;26.50;12.85;;;;;;;3.54;67.28;98943.06;5051591;28;20060;-62
2021/11/19 04:32:50;;;;;;;26.85;13.77;;;;;;;3.48;66.87;98946.13;5049943;28;20043;-62
2021/11/19 04:35:16;;;;;;;26.70;13.52;;;;;;;3.49;67.75;98952.25;5051041;28;20037;-61
2021/11/19 04:37:41;;;;;;;25.63;13.27;;;;;;;3.51;67.32;98953.03;5051135;28;20166;-62
2021/11/19 04:40:09;;;;;;;27.52;12.48;;;;;;;3.45;67.71;98935.75;5050917;28;20021;-61
2021/11/19 04:42:36;;;;;;;27.52;13.27;;;;;;;3.53;67.46;98944.00;5037848;28;20033;-62
2021/11/19 04:45:04;;;;;;;26.85;14.27;;;;;;;3.53;67.71;98949.31;5031418;28;20458;-62
2021/11/19 04:47:29;;;;;;;25.55;12.38;;;;;;;3.47;67.31;98938.25;5030650;28;20397;-62
2021/11/19 04:49:55;;;;;;;27.17;13.52;;;;;;;3.54;67.43;98943.06;5030215;28;20021;-62
2021/11/19 04:52:21;;;;;;;29.98;13.73;;;;;;;3.55;67.68;98951.88;5031812;28;20450;-62
2021/11/19 04:54:47;;;;;;;28.90;13.35;;;;;;;3.50;67.57;98938.09;5031084;28;20045;-62
2021/11/19 04:57:13;;;;;;;23.98;12.25;;;;;;;3.52;67.33;98941.47;5030177;28;20429;-62
2021/11/19 04:59:39;;;;;;;27.42;12.98;;;;;;;3.57;67.48;98949.97;5030754;28;20025;-61
2021/11/19 05:02:10;;;;;;;24.85;12.73;;;;;;;3.59;67.81;98956.84;5031724;28;20029;-62
2021/11/19 05:04:36;;;;;;;25.83;12.95;;;;;;;3.57;68.04;98945.50;5031282;28;20041;-63
2021/11/19 05:07:02;;;;;;;23.77;11.75;;;;;;;3.59;67.71;98951.53;5030863;28;20041;-62
2021/11/19 05:09:30;;;;;;;23.08;12.23;;;;;;;3.65;67.80;98946.81;5030839;28;20029;-63
2021/11/19 05:12:08;;;;;;;26.23;13.23;;;;;;;3.67;67.91;98934.31;5031290;28;20401;-62
2021/11/19 05:14:35;;;;;;;26.75;12.48;;;;;;;3.68;67.44;98954.56;5047444;28;20029;-61
2021/11/19 05:17:06;;;;;;;26.55;12.60;;;;;;;3.70;67.66;98956.13;5050261;28;20052;-61
2021/11/19 05:19:31;;;;;;;24.73;12.38;;;;;;;3.65;67.99;98958.22;5051170;28;20033;-61
2021/11/19 05:21:58;;;;;;;26.50;11.85;;;;;;;3.66;67.58;98954.63;5050889;28;20345;-64
2021/11/19 05:24:23;;;;;;;30.02;12.77;;;;;;;3.66;67.67;98946.69;5048996;28;20116;-65
2021/11/19 05:26:49;;;;;;;30.70;13.13;;;;;;;3.66;67.44;98954.63;5049122;28;20048;-65
2021/11/19 05:29:16;;;;;;;27.92;12.52;;;;;;;3.67;67.88;98955.50;5051095;28;20496;-65
2021/11/19 05:31:42;;;;;;;22.55;11.82;;;;;;;3.66;67.68;98952.00;5049386;28;20556;-63
2021/11/19 05:34:10;;;;;;;25.65;12.73;;;;;;;3.70;68.32;98955.28;5044574;28;20101;-64
2021/11/19 05:36:35;;;;;;;25.13;12.23;;;;;;;3.69;67.72;98940.38;5030867;28;20102;-64
2021/11/19 05:39:03;;;;;;;26.80;12.25;;;;;;;3.75;67.70;98952.34;5029935;28;20029;-65
2021/11/19 05:41:30;;;;;;;22.67;11.85;;;;;;;3.73;67.48;98950.63;5030442;28;20040;-65
2021/11/19 05:43:56;;;;;;;24.85;12.15;;;;;;;3.73;68.41;98955.91;5030627;28;20116;-65
2021/11/19 05:46:25;;;;;;;26.67;12.43;;;;;;;3.72;68.21;98954.22;5050522;28;20037;-65
2021/11/19 05:48:53;;;;;;;23.60;11.85;;;;;;;3.78;68.19;98950.31;5051043;28;20044;-65
2021/11/19 05:51:19;;;;;;;26.10;12.55;;;;;;;3.75;68.12;98944.41;5051833;28;20036;-62
2021/11/19 05:53:46;;;;;;;23.38;11.45;;;;;;;3.80;68.01;98951.06;5054232;28;20369;-57
2021/11/19 05:56:13;;;;;;;23.70;11.52;;;;;;;3.81;67.77;98952.75;5052884;28;20048;-57
2021/11/19 05:58:39;;;;;;;25.35;12.30;;;;;;;3.76;68.18;98944.28;5054925;28;20021;-57
2021/11/19 06:01:10;;;;;;;24.33;11.50;;;;;;;3.87;68.25;98949.72;5053850;28;20033;-61
2021/11/19 06:03:37;;;;;;;27.33;12.10;;;;;;;3.88;67.59;98959.38;5053463;28;20487;-63
2021/11/19 06:06:08;;;;;;;22.52;11.30;;;;;;;3.92;67.61;98951.22;5045009;28;20041;-62
2021/11/19 06:08:34;;;;;;;24.63;11.07;;;;;;;3.94;67.38;98947.50;5034620;28;20116;-61
2021/11/19 06:11:03;;;;;;;22.83;11.60;;;;;;;4.01;67.13;98948.81;5034101;28;20504;-63
2021/11/19 06:13:53;;;;;;;26.27;11.90;;;;;;;4.09;67.37;98960.66;5033838;28;20025;-63
2021/11/19 06:16:23;;;;;;;23.90;11.18;;;;;;;4.09;66.82;98944.78;5048152;28;20064;-62
2021/11/19 06:18:59;;;;;;;23.88;11.82;;;;;;;4.16;66.95;98952.19;5053769;28;20069;-64
2021/11/19 06:21:35;;;;;;;21.77;11.15;;;;;;;4.15;66.92;98939.91;5052488;28;20029;-64
2021/11/19 06:24:03;;;;;;;;;;;;;;;4.35;66.44;98940.34;5042174;28;20033;-64
2021/11/19 06:26:30;;;;;;;22.73;10.55;;;;;;;4.21;66.52;98924.53;5040337;28;20015;-67
2021/11/19 06:29:04;;;;;;;25.33;11.32;;;;;;;4.16;66.80;98925.72;5028147;28;20045;-66
2021/11/19 06:31:30;;;;;;;21.05;10.82;;;;;;;4.15;67.13;98928.44;5041979;28;20030;-66
2021/11/19 06:33:56;;;;;;;24.98;11.60;;;;;;;4.18;66.64;98928.25;5041157;28;20026;-66
2021/11/19 06:36:22;;;;;;;21.52;10.90;;;;;;;3.90;66.57;98884.28;5042293;28;20128;-66
2021/11/19 06:38:48;;;;;;;24.65;10.55;;;;;;;4.20;66.73;98936.94;5042613;28;20426;-66
2021/11/19 06:41:15;;;;;;;25.77;12.02;;;;;;;4.24;66.68;98934.91;5039586;28;20048;-67
2021/11/19 06:43:41;;;;;;;28.50;12.00;;;;;;;4.25;66.52;98929.53;5041669;28;20381;-67
2021/11/19 06:46:08;;;;;;;25.20;11.80;;;;;;;4.30;66.06;98929.19;5041875;28;20631;-68
2021/11/19 06:48:34;;;;;;;23.50;12.07;;;;;;;4.13;66.40;98898.56;5040367;28;20029;-67
2021/11/19 06:51:03;;;;;;;25.23;11.30;;;;;;;4.09;66.03;98882.03;5040349;28;20183;-66
2021/11/19 06:53:33;;;;;;;23.33;11.98;;;;;;;4.33;65.79;98921.03;5053574;28;20048;-66
2021/11/19 06:55:58;;;;;;;23.50;11.70;;;;;;;4.38;66.46;98939.28;5051781;28;20029;-68
2021/11/19 06:58:26;;;;;;;21.65;10.38;;;;;;;4.44;66.10;98915.84;5035871;28;20370;-68
2021/11/19 07:00:53;;;;;;;25.95;11.35;;;;;;;4.25;66.08;98880.97;5033020;28;20489;-66
2021/11/19 07:03:19;;;;;;;25.17;11.15;;;;;;;4.33;66.58;98889.22;5032788;28;20116;-68
2021/11/19 07:05:45;;;;;;;25.77;11.52;;;;;;;4.54;65.35;98924.00;5031589;28;20029;-65
2021/11/19 07:08:12;;;;;;;26.92;12.10;;;;;;;4.60;65.86;98928.88;5034378;28;20045;-68
2021/11/19 07:10:40;;;;;;;26.60;11.40;;;;;;;4.58;66.03;98914.88;5032782;28;20157;-66
2021/11/19 07:13:06;;;;;;;22.92;11.15;;;;;;;4.69;65.35;98922.06;5031174;28;20029;-66
2021/11/19 07:15:33;;;;;;;20.88;10.20;;;;;;;4.80;65.31;98931.06;5032333;28;20366;-67
2021/11/19 07:17:59;;;;;;;22.30;11.50;;;;;;;4.78;64.86;98920.56;5032950;28;20041;-69
2021/11/19 07:20:27;;;;;;;21.58;11.10;;;;;;;4.82;65.06;98915.88;5031550;28;20094;-71
2021/11/19 07:22:55;;;;;;;24.33;10.60;;;;;;;4.81;65.30;98924.78;5032984;28;20037;-67
2021/11/19 07:25:22;;;;;;;26.67;11.20;;;;;;;4.83;64.37;98922.91;5032969;28;20061;-61
2021/11/19 07:27:53;;;;;;;25.85;11.93;;;;;;;4.83;64.85;98914.94;5014450;28;20049;-61
2021/11/19 07:30:22;;;;;;;21.75;11.63;;;;;;;4.81;64.66;98909.75;5032523;28;20045;-62
2021/11/19 07:32:48;;;;;;;23.20;11.38;;;;;;;4.81;65.07;98925.66;5033066;28;20146;-59
2021/11/19 07:35:14;;;;;;;20.80;10.65;;;;;;;4.84;64.68;98916.66;5032940;28;20121;-60
2021/11/19 07:37:40;;;;;;;22.63;10.38;;;;;;;4.84;64.81;98914.81;5031777;28;20117;-60
2021/11/19 07:40:09;;;;;;;19.35;9.52;;;;;;;4.90;64.69;98908.25;5031248;28;20456;-59
2021/11/19 07:42:35;;;;;;;22.50;10.23;;;;;;;4.67;64.42;98860.34;5032747;28;20462;-63
2021/11/19 07:45:01;;;;;;;21.90;9.82;;;;;;;4.96;64.54;98897.19;5032920;28;20112;-56
2021/11/19 07:47:28;;;;;;;19.63;10.00;;;;;;;5.01;64.14;98900.34;5032271;28;20029;-60
2021/11/19 07:49:54;;;;;;;22.00;10.45;;;;;;;5.06;63.98;98901.81;5032144;28;20036;-62
2021/11/19 07:52:19;;;;;;;20.20;10.32;;;;;;;5.08;64.30;98902.56;5032611;28;20462;-63
2021/11/19 07:54:45;;;;;;;16.48;9.30;;;;;;;5.14;63.49;98894.16;5032533;28;20064;-60
2021/11/19 07:57:11;;;;;;;17.83;9.65;;;;;;;5.18;63.27;98898.28;5032008;28;20021;-62
2021/11/19 07:59:37;;;;;;;21.67;9.90;;;;;;;5.25;63.24;98901.31;5032292;28;20044;-61
2021/11/19 08:02:03;;;;;;;18.25;9.63;;;;;;;5.29;62.96;98893.00;5032425;28;20037;-61
2021/11/19 08:04:31;;;;;;;19.30;9.55;;;;;;;5.42;63.19;98902.72;5032558;28;20029;-61
2021/11/19 08:06:58;;;;;;;16.88;9.40;;;;;;;5.40;62.71;98894.88;5031798;28;20029;-60
2021/11/19 08:09:24;;;;;;;19.98;10.18;;;;;;;5.45;62.85;98889.22;5031755;28;20038;-59
2021/11/19 08:11:50;;;;;;;18.98;9.88;;;;;;;5.52;62.85;98887.78;5032227;28;20117;-60
2021/11/19 08:14:16;;;;;;;19.33;9.57;;;;;;;5.65;62.25;98886.88;5031642;28;20116;-61
2021/11/19 08:16:47;;;;;;;17.45;8.65;;;;;;;5.85;61.61;98886.22;5031770;28;20596;-60
2021/11/19 08:19:46;;;;;;;21.33;9.88;;;;;;;6.10;61.97;98886.16;5031022;28;20385;-61
2021/11/19 08:22:14;;;;;;;16.98;8.65;;;;;;;6.07;60.85;98892.59;5031476;28;20033;-59
2021/11/19 08:24:40;;;;;;;20.65;9.07;;;;;;;6.07;60.78;98891.72;5031766;28;20034;-62
2021/11/19 08:27:12;;;;;;;14.38;8.02;;;;;;;6.03;60.78;98893.78;5031726;28;20074;-60
2021/11/19 08:29:40;;;;;;;17.92;8.40;;;;;;;5.93;61.33;98906.03;5031205;28;20041;-63
2021/11/19 08:32:08;;;;;;;16.33;9.00;;;;;;;5.83;61.66;98893.47;5031717;28;20034;-61
2021/11/19 08:34:34;;;;;;;14.38;8.48;;;;;;;5.75;61.65;98882.56;5031583;28;20401;-60
2021/11/19 08:37:01;;;;;;;19.20;8.70;;;;;;;5.73;61.97;98879.19;5030996;28;20394;-61
2021/11/19 08:39:28;;;;;;;17.92;8.90;;;;;;;5.70;61.65;98880.28;5031159;28;20033;-60
2021/11/19 08:41:55;;;;;;;17.48;8.10;;;;;;;5.77;61.41;98880.63;5031138;28;20112;-59
2021/11/19 08:44:23;;;;;;;19.63;8.82;;;;;;;5.69;61.18;98867.09;5031125;28;20033;-61
2021/11/19 08:46:51;;;;;;;17.45;8.77;;;;;;;5.81;61.33;98875.94;5030046;28;20033;-61
2021/11/19 08:49:21;;;;;;;20.70;9.35;;;;;;;5.64;61.44;98840.06;5051134;28;20057;-62
2021/11/19 08:51:48;;;;;;;18.83;9.05;;;;;;;5.86;61.29;98877.28;5049714;28;20466;-61
2021/11/19 08:54:16;;;;;;;18.52;9.15;;;;;;;5.82;60.92;98885.59;5051349;28;20033;-62
2021/11/19 08:56:46;;;;;;;17.70;8.88;;;;;;;5.73;61.10;98868.56;5051245;28;20098;-60
2021/11/19 08:59:13;;;;;;;16.55;9.02;;;;;;;5.81;61.26;98886.56;5047842;28;20106;-60
2021/11/19 09:01:40;;;;;;;17.48;9.65;;;;;;;5.77;60.98;98885.94;5051264;28;20354;-61
2021/11/19 09:04:06;;;;;;;18.10;8.68;;;;;;;5.77;61.00;98880.63;5051314;28;20025;-59
2021/11/19 09:06:32;;;;;;;18.65;9.80;;;;;;;5.68;61.07;98865.41;5050645;28;20083;-57
2021/11/19 09:08:58;;;;;;;16.20;9.32;;;;;;;5.69;61.08;98867.97;5050805;28;20358;-62
2021/11/19 09:11:25;;;;;;;18.35;9.20;;;;;;;5.63;61.50;98867.56;5050944;28;20041;-60
2021/11/19 09:13:54;;;;;;;17.08;9.57;;;;;;;5.57;61.41;98875.03;5050889;28;20120;-60
2021/11/19 09:16:23;;;;;;;20.05;10.40;;;;;;;5.30;61.95;98827.50;5050444;28;20391;-59
2021/11/19 09:19:20;;;;;;;19.30;10.00;;;;;;;5.34;61.75;98825.50;5050991;28;20049;-60
2021/11/19 09:22:01;;;;;;;21.67;9.82;;;;;;;5.46;61.90;98859.91;5049285;28;20040;-59
2021/11/19 09:24:31;;;;;;;20.08;9.73;;;;;;;5.36;62.17;98850.94;5050544;28;20098;-62
2021/11/19 09:27:08;;;;;;;20.40;10.05;;;;;;;5.41;62.18;98854.09;5054323;28;20108;-62
2021/11/19 09:29:38;;;;;;;18.25;9.57;;;;;;;5.41;62.49;98840.81;5053486;28;20084;-62
2021/11/19 09:32:05;;;;;;;20.10;9.68;;;;;;;5.47;61.81;98842.16;5054618;28;20048;-62
2021/11/19 09:34:36;;;;;;;17.25;8.88;;;;;;;5.51;61.67;98842.78;5054698;28;20044;-61
2021/11/19 09:37:06;;;;;;;15.80;8.82;;;;;;;5.55;62.11;98850.41;5054784;28;20025;-60
2021/11/19 09:39:33;;;;;;;15.50;9.10;;;;;;;5.55;61.74;98841.59;5055194;28;20462;-60
2021/11/19 09:42:08;;;;;;;18.20;9.05;;;;;;;5.55;61.86;98836.28;5054554;28;20028;-59
2021/11/19 09:44:56;;;;;;;19.63;10.15;;;;;;;5.63;61.79;98828.56;5054761;28;20048;-60
2021/11/19 09:48:01;;;;;;;18.88;9.43;;;;;;;5.55;62.10;98820.34;5054343;28;20032;-61
2021/11/19 09:50:51;;;;;;;20.00;9.07;;;;;;;5.62;61.65;98820.75;5053508;28;20091;-61
2021/11/19 09:53:44;;;;;;;19.30;8.93;;;;;;;5.60;61.70;98821.69;5054208;28;20028;-61
2021/11/19 09:56:37;;;;;;;19.70;9.05;;;;;;;5.68;61.77;98813.16;5054661;28;20480;-59
2021/11/19 09:59:12;;;;;;;18.73;9.32;;;;;;;5.70;61.79;98807.72;5054352;28;20041;-60
2021/11/19 10:02:08;;;;;;;17.73;9.20;;;;;;;5.77;61.54;98808.91;5054203;28;20043;-61
2021/11/19 10:05:03;;;;;;;16.42;8.93;;;;;;;5.84;61.78;98798.66;5053963;28;20024;-61
2021/11/19 10:07:47;;;;;;;18.50;8.27;;;;;;;5.83;61.29;98795.19;5054351;28;20393;-61
2021/11/19 10:10:34;;;;;;;17.23;9.07;;;;;;;5.95;61.04;98788.06;5054354;28;20033;-59
2021/11/19 10:13:32;;;;;;;18.75;8.75;;;;;;;6.00;60.65;98785.03;5053834;28;20083;-61
2021/11/19 10:16:25;;;;;;;19.85;9.15;;;;;;;6.07;60.89;98786.28;5053272;28;20477;-60
2021/11/19 10:19:03;;;;;;;19.25;9.10;;;;;;;6.07;60.87;98785.44;5052234;28;20360;-60
2021/11/19 10:21:54;;;;;;;17.38;8.85;;;;;;;6.05;61.04;98777.59;5032352;28;20040;-61
2021/11/19 10:24:47;;;;;;;18.30;8.20;;;;;;;6.12;60.88;98777.94;5033689;28;20037;-60
2021/11/19 10:27:21;;;;;;;17.20;8.88;;;;;;;6.09;60.57;98772.88;5033578;28;20038;-60
2021/11/19 10:29:54;;;;;;;18.00;8.80;;;;;;;6.14;60.83;98760.91;5033648;28;20529;-60
2021/11/19 10:32:25;;;;;;;14.90;8.20;;;;;;;6.07;60.12;98765.03;5031934;28;20120;-59
2021/11/19 10:35:13;;;;;;;17.85;9.10;;;;;;;6.07;60.75;98764.19;5033601;28;20025;-61
2021/11/19 10:38:16;;;;;;;18.52;8.85;;;;;;;6.01;60.94;98761.03;5033332;28;20033;-59
2021/11/19 10:41:01;;;;;;;18.00;8.77;;;;;;;5.96;60.96;98755.22;5033665;28;20063;-62
2021/11/19 10:43:58;;;;;;;15.20;8.30;;;;;;;5.83;60.86;98744.72;5048977;28;20037;-58
2021/11/19 10:46:31;;;;;;;18.00;8.38;;;;;;;5.78;61.34;98756.66;5032899;28;20080;-61
2021/11/19 10:49:15;;;;;;;16.98;8.65;;;;;;;5.81;62.25;98757.28;5033499;28;20079;-62
2021/11/19 10:52:04;;;;;;;14.57;7.88;;;;;;;5.79;62.54;98751.25;5032563;28;20030;-61
2021/11/19 10:54:54;;;;;;;20.98;8.32;;;;;;;5.78;62.68;98748.69;5032778;28;20512;-62
2021/11/19 10:57:46;;;;;;;17.83;8.65;;;;;;;5.83;62.25;98750.03;5033376;28;20029;-62
2021/11/19 11:00:31;;;;;;;16.90;8.82;;;;;;;5.79;62.73;98745.06;5022634;28;20048;-63
2021/11/19 11:03:06;;;;;;;16.75;8.02;;;;;;;5.69;62.60;98758.22;5033174;28;20163;-64
2021/11/19 11:05:38;;;;;;;15.63;8.63;;;;;;;5.56;62.66;98751.22;5032581;28;20037;-63
2021/11/19 11:08:06;;;;;;;18.48;8.30;;;;;;;5.39;63.40;98743.69;5032000;28;20041;-62
2021/11/19 11:10:41;;;;;;;15.45;8.75;;;;;;;5.29;64.14;98747.03;5033170;28;20048;-62
2021/11/19 11:13:24;;;;;;;16.35;8.55;;;;;;;5.19;64.76;98726.66;5031602;28;20029;-61
2021/11/19 11:16:05;;;;;;;15.68;8.10;;;;;;;5.34;64.32;98748.50;5032332;28;20026;-62
2021/11/19 11:18:44;;;;;;;16.05;8.57;;;;;;;5.20;64.65;98745.09;5032432;28;20029;-63
2021/11/19 11:21:35;;;;;;;18.58;8.77;;;;;;;5.31;64.51;98747.78;5031612;28;20025;-62
2021/11/19 11:24:15;;;;;;;16.95;8.43;;;;;;;5.32;64.93;98741.50;5033476;28;20033;-63
2021/11/19 11:27:04;;;;;;;18.40;8.63;;;;;;;5.35;64.52;98732.44;5033550;28;20037;-62
2021/11/19 11:30:11;;;;;;;18.58;8.77;;;;;;;5.45;64.04;98729.94;5032304;28;20425;-62
2021/11/19 11:32:54;;;;;;;17.58;8.90;;;;;;;5.45;64.11;98729.94;5033082;28;20061;-62
2021/11/19 11:35:41;;;;;;;15.77;8.73;;;;;;;5.46;63.90;98729.84;5033349;28;20091;-63
2021/11/19 11:38:06;;;;;;;17.48;8.85;;;;;;;5.41;63.54;98729.31;5032389;28;20200;-63
2021/11/19 11:40:36;;;;;;;16.85;8.88;;;;;;;5.43;63.90;98727.41;5032361;28;20473;-62
2021/11/19 11:43:25;;;;;;;17.45;8.77;;;;;;;5.47;63.87;98725.34;5032944;28;20037;-61
2021/11/19 11:46:00;;;;;;;15.43;8.63;;;;;;;5.48;63.50;98724.38;5032683;28;20045;-62
2021/11/19 11:48:32;;;;;;;15.82;8.57;;;;;;;5.42;63.44;98731.00;5013507;28;20502;-63